sensor_id;sensor_type;location;lat;lon;timestamp;P1;durP1;ratioP1;P2;durP2;ratioP2
70757;SDS011;59316;52.964;7.102;2022-12-31T00:02:28;4.70;;;3.27;;
70757;SDS011;59316;52.964;7.102;2022-12-31T00:07:32;6.80;;;3.30;;
70757;SDS011;59316;52.964;7.102;2022-12-31T00:12:34;6.80;;;3.45;;
70757;SDS011;59316;52.964;7.102;2022-12-31T00:17:37;6.33;;;3.93;;
70757;SDS011;59316;52.964;7.102;2022-12-31T00:22:40;4.80;;;3.67;;
70757;SDS011;59316;52.964;7.102;2022-12-31T00:27:42;7.53;;;4.30;;
70757;SDS011;59316;52.964;7.102;2022-12-31T00:32:45;8.23;;;4.77;;
70757;SDS011;59316;52.964;7.102;2022-12-31T00:37:48;8.17;;;5.20;;
70757;SDS011;59316;52.964;7.102;2022-12-31T00:42:52;9.80;;;5.30;;
70757;SDS011;59316;52.964;7.102;2022-12-31T00:47:55;11.17;;;4.90;;
70757;SDS011;59316;52.964;7.102;2022-12-31T00:52:57;9.97;;;4.83;;
70757;SDS011;59316;52.964;7.102;2022-12-31T00:58:00;8.07;;;4.37;;
70757;SDS011;59316;52.964;7.102;2022-12-31T01:03:02;10.03;;;5.00;;
70757;SDS011;59316;52.964;7.102;2022-12-31T01:08:05;11.07;;;5.35;;
70757;SDS011;59316;52.964;7.102;2022-12-31T01:13:08;13.80;;;6.37;;
70757;SDS011;59316;52.964;7.102;2022-12-31T01:18:11;11.25;;;5.45;;
70757;SDS011;59316;52.964;7.102;2022-12-31T01:23:13;13.57;;;4.85;;
70757;SDS011;59316;52.964;7.102;2022-12-31T01:28:16;11.67;;;5.57;;
70757;SDS011;59316;52.964;7.102;2022-12-31T01:33:18;11.88;;;5.97;;
70757;SDS011;59316;52.964;7.102;2022-12-31T01:38:21;11.00;;;5.07;;
70757;SDS011;59316;52.964;7.102;2022-12-31T01:43:23;7.90;;;4.33;;
70757;SDS011;59316;52.964;7.102;2022-12-31T01:48:55;9.43;;;5.15;;
70757;SDS011;59316;52.964;7.102;2022-12-31T01:54:01;12.73;;;5.50;;
70757;SDS011;59316;52.964;7.102;2022-12-31T01:59:08;11.73;;;5.85;;
70757;SDS011;59316;52.964;7.102;2022-12-31T02:04:13;14.00;;;5.60;;
70757;SDS011;59316;52.964;7.102;2022-12-31T02:09:17;11.07;;;5.80;;
70757;SDS011;59316;52.964;7.102;2022-12-31T02:24:59;9.63;;;4.82;;
70757;SDS011;59316;52.964;7.102;2022-12-31T02:30:17;7.93;;;4.53;;
70757;SDS011;59316;52.964;7.102;2022-12-31T02:35:31;10.73;;;5.35;;
70757;SDS011;59316;52.964;7.102;2022-12-31T02:40:39;11.27;;;5.30;;
70757;SDS011;59316;52.964;7.102;2022-12-31T02:45:43;12.20;;;5.25;;
70757;SDS011;59316;52.964;7.102;2022-12-31T03:01:32;10.57;;;4.82;;
70757;SDS011;59316;52.964;7.102;2022-12-31T03:06:38;8.10;;;3.67;;
70757;SDS011;59316;52.964;7.102;2022-12-31T03:11:42;8.68;;;3.80;;
70757;SDS011;59316;52.964;7.102;2022-12-31T03:16:45;5.35;;;3.28;;
70757;SDS011;59316;52.964;7.102;2022-12-31T03:21:48;7.17;;;2.80;;
70757;SDS011;59316;52.964;7.102;2022-12-31T03:26:50;3.78;;;2.10;;
70757;SDS011;59316;52.964;7.102;2022-12-31T03:31:52;6.10;;;1.40;;
70757;SDS011;59316;52.964;7.102;2022-12-31T03:36:55;4.93;;;1.33;;
70757;SDS011;59316;52.964;7.102;2022-12-31T03:41:58;2.00;;;1.30;;
70757;SDS011;59316;52.964;7.102;2022-12-31T03:47:00;5.90;;;1.40;;
70757;SDS011;59316;52.964;7.102;2022-12-31T03:52:02;3.30;;;1.63;;
70757;SDS011;59316;52.964;7.102;2022-12-31T03:57:05;5.22;;;1.45;;
70757;SDS011;59316;52.964;7.102;2022-12-31T04:02:08;1.92;;;1.65;;
70757;SDS011;59316;52.964;7.102;2022-12-31T04:07:10;2.35;;;1.58;;
70757;SDS011;59316;52.964;7.102;2022-12-31T04:12:13;4.28;;;1.73;;
70757;SDS011;59316;52.964;7.102;2022-12-31T04:17:16;2.42;;;1.80;;
70757;SDS011;59316;52.964;7.102;2022-12-31T04:22:18;5.30;;;2.23;;
70757;SDS011;59316;52.964;7.102;2022-12-31T04:27:21;3.45;;;2.17;;
70757;SDS011;59316;52.964;7.102;2022-12-31T04:32:23;6.50;;;2.90;;
70757;SDS011;59316;52.964;7.102;2022-12-31T04:37:26;6.80;;;2.67;;
70757;SDS011;59316;52.964;7.102;2022-12-31T04:42:28;4.95;;;2.88;;
70757;SDS011;59316;52.964;7.102;2022-12-31T04:47:31;4.75;;;2.70;;
70757;SDS011;59316;52.964;7.102;2022-12-31T04:52:34;5.87;;;2.83;;
70757;SDS011;59316;52.964;7.102;2022-12-31T04:57:43;5.70;;;2.75;;
70757;SDS011;59316;52.964;7.102;2022-12-31T05:02:45;5.90;;;2.67;;
70757;SDS011;59316;52.964;7.102;2022-12-31T05:07:48;3.60;;;2.85;;
70757;SDS011;59316;52.964;7.102;2022-12-31T05:12:51;4.07;;;2.40;;
70757;SDS011;59316;52.964;7.102;2022-12-31T05:17:53;4.33;;;2.53;;
70757;SDS011;59316;52.964;7.102;2022-12-31T05:22:55;6.07;;;2.60;;
70757;SDS011;59316;52.964;7.102;2022-12-31T05:27:58;6.50;;;2.33;;
70757;SDS011;59316;52.964;7.102;2022-12-31T05:33:00;4.72;;;2.95;;
70757;SDS011;59316;52.964;7.102;2022-12-31T05:38:03;5.30;;;1.77;;
70757;SDS011;59316;52.964;7.102;2022-12-31T05:43:05;5.53;;;1.80;;
70757;SDS011;59316;52.964;7.102;2022-12-31T05:48:08;3.50;;;1.40;;
70757;SDS011;59316;52.964;7.102;2022-12-31T05:53:10;3.87;;;1.67;;
70757;SDS011;59316;52.964;7.102;2022-12-31T05:58:13;4.15;;;1.40;;
70757;SDS011;59316;52.964;7.102;2022-12-31T06:03:16;3.83;;;1.60;;
70757;SDS011;59316;52.964;7.102;2022-12-31T06:08:19;5.17;;;2.40;;
70757;SDS011;59316;52.964;7.102;2022-12-31T06:13:21;5.70;;;2.47;;
70757;SDS011;59316;52.964;7.102;2022-12-31T06:18:24;5.77;;;3.40;;
70757;SDS011;59316;52.964;7.102;2022-12-31T06:23:26;8.07;;;4.20;;
70757;SDS011;59316;52.964;7.102;2022-12-31T06:28:29;8.40;;;4.50;;
70757;SDS011;59316;52.964;7.102;2022-12-31T06:33:31;8.13;;;4.27;;
70757;SDS011;59316;52.964;7.102;2022-12-31T06:38:35;9.75;;;5.20;;
70757;SDS011;59316;52.964;7.102;2022-12-31T06:43:39;8.23;;;4.88;;
70757;SDS011;59316;52.964;7.102;2022-12-31T06:48:43;7.68;;;4.32;;
70757;SDS011;59316;52.964;7.102;2022-12-31T06:58:50;7.20;;;3.83;;
70757;SDS011;59316;52.964;7.102;2022-12-31T07:08:59;5.78;;;2.97;;
70757;SDS011;59316;52.964;7.102;2022-12-31T07:20:33;7.95;;;4.38;;
70757;SDS011;59316;52.964;7.102;2022-12-31T07:25:36;12.63;;;4.60;;
70757;SDS011;59316;52.964;7.102;2022-12-31T07:31:05;7.07;;;3.60;;
70757;SDS011;59316;52.964;7.102;2022-12-31T07:42:37;5.10;;;3.45;;
70757;SDS011;59316;52.964;7.102;2022-12-31T07:47:51;5.40;;;3.53;;
70757;SDS011;59316;52.964;7.102;2022-12-31T07:53:00;6.00;;;3.90;;
70757;SDS011;59316;52.964;7.102;2022-12-31T07:58:09;7.65;;;3.60;;
70757;SDS011;59316;52.964;7.102;2022-12-31T08:03:27;8.15;;;3.90;;
70757;SDS011;59316;52.964;7.102;2022-12-31T08:08:41;7.07;;;3.70;;
70757;SDS011;59316;52.964;7.102;2022-12-31T08:13:45;6.60;;;3.60;;
70757;SDS011;59316;52.964;7.102;2022-12-31T08:18:48;5.63;;;3.10;;
70757;SDS011;59316;52.964;7.102;2022-12-31T08:30:00;5.60;;;2.80;;
70757;SDS011;59316;52.964;7.102;2022-12-31T08:34:54;5.70;;;2.72;;
70757;SDS011;59316;52.964;7.102;2022-12-31T08:40:13;5.75;;;2.80;;
70757;SDS011;59316;52.964;7.102;2022-12-31T08:45:37;5.53;;;3.25;;
70757;SDS011;59316;52.964;7.102;2022-12-31T08:50:43;5.28;;;3.00;;
70757;SDS011;59316;52.964;7.102;2022-12-31T08:55:46;4.72;;;2.47;;
70757;SDS011;59316;52.964;7.102;2022-12-31T09:00:54;5.05;;;3.20;;
70757;SDS011;59316;52.964;7.102;2022-12-31T09:17:00;5.78;;;3.45;;
70757;SDS011;59316;52.964;7.102;2022-12-31T09:22:11;7.88;;;3.97;;
70757;SDS011;59316;52.964;7.102;2022-12-31T09:27:15;7.57;;;3.40;;
70757;SDS011;59316;52.964;7.102;2022-12-31T09:32:33;3.72;;;2.63;;
70757;SDS011;59316;52.964;7.102;2022-12-31T10:11:04;1.90;;;1.23;;
70757;SDS011;59316;52.964;7.102;2022-12-31T10:27:25;1.40;;;0.68;;
70757;SDS011;59316;52.964;7.102;2022-12-31T10:48:55;2.53;;;0.80;;
70757;SDS011;59316;52.964;7.102;2022-12-31T11:26:46;2.78;;;1.70;;
70757;SDS011;59316;52.964;7.102;2022-12-31T11:32:08;4.38;;;2.10;;
70757;SDS011;59316;52.964;7.102;2022-12-31T11:48:03;5.20;;;2.80;;
70757;SDS011;59316;52.964;7.102;2022-12-31T11:53:41;4.72;;;2.30;;
70757;SDS011;59316;52.964;7.102;2022-12-31T11:59:08;8.95;;;3.17;;
70757;SDS011;59316;52.964;7.102;2022-12-31T12:04:20;9.88;;;3.90;;
70757;SDS011;59316;52.964;7.102;2022-12-31T12:09:27;5.18;;;2.78;;
70757;SDS011;59316;52.964;7.102;2022-12-31T12:14:36;5.85;;;2.08;;
70757;SDS011;59316;52.964;7.102;2022-12-31T12:19:43;7.38;;;2.70;;
70757;SDS011;59316;52.964;7.102;2022-12-31T12:24:51;4.53;;;2.40;;
70757;SDS011;59316;52.964;7.102;2022-12-31T12:29:55;3.15;;;2.10;;
70757;SDS011;59316;52.964;7.102;2022-12-31T12:34:58;5.37;;;2.20;;
70757;SDS011;59316;52.964;7.102;2022-12-31T12:40:03;2.90;;;1.77;;
70757;SDS011;59316;52.964;7.102;2022-12-31T12:45:46;3.25;;;1.85;;
70757;SDS011;59316;52.964;7.102;2022-12-31T12:50:53;2.95;;;1.88;;
70757;SDS011;59316;52.964;7.102;2022-12-31T12:56:00;3.70;;;1.85;;
70757;SDS011;59316;52.964;7.102;2022-12-31T13:23:33;5.18;;;2.30;;
70757;SDS011;59316;52.964;7.102;2022-12-31T13:28:42;4.72;;;2.10;;
70757;SDS011;59316;52.964;7.102;2022-12-31T13:33:50;7.75;;;2.53;;
70757;SDS011;59316;52.964;7.102;2022-12-31T13:38:57;5.38;;;2.83;;
70757;SDS011;59316;52.964;7.102;2022-12-31T13:49:20;4.03;;;2.22;;
70757;SDS011;59316;52.964;7.102;2022-12-31T13:54:35;3.10;;;2.03;;
70757;SDS011;59316;52.964;7.102;2022-12-31T13:59:46;2.92;;;1.73;;
70757;SDS011;59316;52.964;7.102;2022-12-31T14:05:00;3.63;;;1.80;;
70757;SDS011;59316;52.964;7.102;2022-12-31T14:10:14;4.20;;;1.77;;
70757;SDS011;59316;52.964;7.102;2022-12-31T14:15:21;4.38;;;1.50;;
70757;SDS011;59316;52.964;7.102;2022-12-31T14:20:41;3.58;;;1.70;;
70757;SDS011;59316;52.964;7.102;2022-12-31T14:25:56;2.53;;;1.52;;
70757;SDS011;59316;52.964;7.102;2022-12-31T14:31:25;2.30;;;1.48;;
70757;SDS011;59316;52.964;7.102;2022-12-31T14:36:40;3.55;;;1.60;;
70757;SDS011;59316;52.964;7.102;2022-12-31T14:53:23;1.88;;;0.98;;
70757;SDS011;59316;52.964;7.102;2022-12-31T14:58:37;3.33;;;1.50;;
70757;SDS011;59316;52.964;7.102;2022-12-31T15:24:52;12.07;;;4.85;;
70757;SDS011;59316;52.964;7.102;2022-12-31T15:29:55;9.82;;;4.38;;
70757;SDS011;59316;52.964;7.102;2022-12-31T15:35:02;8.95;;;4.10;;
70757;SDS011;59316;52.964;7.102;2022-12-31T15:40:26;6.20;;;4.05;;
70757;SDS011;59316;52.964;7.102;2022-12-31T15:45:34;9.85;;;4.32;;
70757;SDS011;59316;52.964;7.102;2022-12-31T15:50:39;6.53;;;3.70;;
70757;SDS011;59316;52.964;7.102;2022-12-31T15:55:45;8.73;;;4.32;;
70757;SDS011;59316;52.964;7.102;2022-12-31T16:06:37;7.22;;;4.18;;
70757;SDS011;59316;52.964;7.102;2022-12-31T16:11:40;8.32;;;3.50;;
70757;SDS011;59316;52.964;7.102;2022-12-31T16:16:49;7.22;;;3.83;;
70757;SDS011;59316;52.964;7.102;2022-12-31T16:22:00;8.10;;;3.80;;
70757;SDS011;59316;52.964;7.102;2022-12-31T16:27:12;9.10;;;4.13;;
70757;SDS011;59316;52.964;7.102;2022-12-31T16:32:17;6.85;;;3.90;;
70757;SDS011;59316;52.964;7.102;2022-12-31T16:42:24;9.00;;;4.38;;
70757;SDS011;59316;52.964;7.102;2022-12-31T16:47:32;8.90;;;4.32;;
70757;SDS011;59316;52.964;7.102;2022-12-31T16:52:39;11.18;;;5.40;;
70757;SDS011;59316;52.964;7.102;2022-12-31T16:57:45;10.93;;;4.97;;
70757;SDS011;59316;52.964;7.102;2022-12-31T17:07:58;20.25;;;9.15;;
70757;SDS011;59316;52.964;7.102;2022-12-31T17:13:24;18.05;;;10.70;;
70757;SDS011;59316;52.964;7.102;2022-12-31T17:18:34;22.33;;;9.77;;
70757;SDS011;59316;52.964;7.102;2022-12-31T17:23:39;22.58;;;11.38;;
70757;SDS011;59316;52.964;7.102;2022-12-31T17:28:46;25.17;;;11.73;;
70757;SDS011;59316;52.964;7.102;2022-12-31T17:33:52;21.95;;;10.52;;
70757;SDS011;59316;52.964;7.102;2022-12-31T17:39:15;23.67;;;10.00;;
70757;SDS011;59316;52.964;7.102;2022-12-31T17:44:19;23.35;;;10.57;;
70757;SDS011;59316;52.964;7.102;2022-12-31T17:49:28;25.73;;;11.93;;
70757;SDS011;59316;52.964;7.102;2022-12-31T17:54:31;20.20;;;10.48;;
70757;SDS011;59316;52.964;7.102;2022-12-31T17:59:34;19.53;;;10.23;;
70757;SDS011;59316;52.964;7.102;2022-12-31T18:09:39;13.10;;;7.47;;
70757;SDS011;59316;52.964;7.102;2022-12-31T18:14:42;18.37;;;8.47;;
70757;SDS011;59316;52.964;7.102;2022-12-31T18:19:46;19.70;;;8.40;;
70757;SDS011;59316;52.964;7.102;2022-12-31T18:25:06;12.65;;;7.45;;
70757;SDS011;59316;52.964;7.102;2022-12-31T18:30:11;17.95;;;8.30;;
70757;SDS011;59316;52.964;7.102;2022-12-31T18:35:17;18.55;;;8.02;;
70757;SDS011;59316;52.964;7.102;2022-12-31T18:40:40;17.30;;;7.15;;
70757;SDS011;59316;52.964;7.102;2022-12-31T18:45:45;15.02;;;6.43;;
70757;SDS011;59316;52.964;7.102;2022-12-31T18:50:48;12.40;;;7.10;;
70757;SDS011;59316;52.964;7.102;2022-12-31T18:55:52;13.65;;;6.95;;
70757;SDS011;59316;52.964;7.102;2022-12-31T19:00:56;12.90;;;5.95;;
70757;SDS011;59316;52.964;7.102;2022-12-31T19:05:59;12.75;;;5.78;;
70757;SDS011;59316;52.964;7.102;2022-12-31T19:11:01;11.97;;;5.87;;
70757;SDS011;59316;52.964;7.102;2022-12-31T19:16:04;12.32;;;5.80;;
70757;SDS011;59316;52.964;7.102;2022-12-31T19:21:14;15.93;;;6.32;;
70757;SDS011;59316;52.964;7.102;2022-12-31T19:26:19;13.40;;;5.78;;
70757;SDS011;59316;52.964;7.102;2022-12-31T19:31:22;13.38;;;6.60;;
70757;SDS011;59316;52.964;7.102;2022-12-31T19:36:25;10.87;;;5.30;;
70757;SDS011;59316;52.964;7.102;2022-12-31T19:41:27;11.67;;;5.80;;
70757;SDS011;59316;52.964;7.102;2022-12-31T19:46:30;11.70;;;6.28;;
70757;SDS011;59316;52.964;7.102;2022-12-31T19:51:32;15.02;;;6.93;;
70757;SDS011;59316;52.964;7.102;2022-12-31T19:56:35;8.27;;;5.72;;
70757;SDS011;59316;52.964;7.102;2022-12-31T20:01:37;11.05;;;6.20;;
70757;SDS011;59316;52.964;7.102;2022-12-31T20:06:40;10.82;;;5.45;;
70757;SDS011;59316;52.964;7.102;2022-12-31T20:11:42;12.65;;;5.10;;
70757;SDS011;59316;52.964;7.102;2022-12-31T20:16:45;9.90;;;5.35;;
70757;SDS011;59316;52.964;7.102;2022-12-31T20:21:47;11.03;;;5.73;;
70757;SDS011;59316;52.964;7.102;2022-12-31T20:26:50;10.68;;;5.47;;
70757;SDS011;59316;52.964;7.102;2022-12-31T20:31:52;12.05;;;5.57;;
70757;SDS011;59316;52.964;7.102;2022-12-31T20:36:55;10.63;;;5.05;;
70757;SDS011;59316;52.964;7.102;2022-12-31T20:41:57;10.60;;;5.20;;
70757;SDS011;59316;52.964;7.102;2022-12-31T20:47:00;9.77;;;5.32;;
70757;SDS011;59316;52.964;7.102;2022-12-31T20:52:02;9.52;;;4.82;;
70757;SDS011;59316;52.964;7.102;2022-12-31T20:57:05;10.88;;;4.82;;
70757;SDS011;59316;52.964;7.102;2022-12-31T21:02:11;10.60;;;5.25;;
70757;SDS011;59316;52.964;7.102;2022-12-31T21:07:23;10.52;;;4.97;;
70757;SDS011;59316;52.964;7.102;2022-12-31T21:12:25;11.10;;;5.00;;
70757;SDS011;59316;52.964;7.102;2022-12-31T21:17:27;12.35;;;5.60;;
70757;SDS011;59316;52.964;7.102;2022-12-31T21:22:30;14.45;;;5.40;;
70757;SDS011;59316;52.964;7.102;2022-12-31T21:27:34;12.57;;;5.40;;
70757;SDS011;59316;52.964;7.102;2022-12-31T21:37:39;9.88;;;5.07;;
70757;SDS011;59316;52.964;7.102;2022-12-31T21:43:00;12.45;;;5.50;;
70757;SDS011;59316;52.964;7.102;2022-12-31T21:48:02;13.47;;;4.57;;
70757;SDS011;59316;52.964;7.102;2022-12-31T21:53:06;9.43;;;4.88;;
70757;SDS011;59316;52.964;7.102;2022-12-31T21:58:08;15.80;;;5.47;;
70757;SDS011;59316;52.964;7.102;2022-12-31T22:03:28;11.05;;;5.43;;
70757;SDS011;59316;52.964;7.102;2022-12-31T22:08:31;14.55;;;5.43;;
70757;SDS011;59316;52.964;7.102;2022-12-31T22:13:34;12.70;;;5.72;;
70757;SDS011;59316;52.964;7.102;2022-12-31T22:18:37;13.30;;;5.40;;
70757;SDS011;59316;52.964;7.102;2022-12-31T22:23:41;12.45;;;5.68;;
70757;SDS011;59316;52.964;7.102;2022-12-31T22:28:44;9.35;;;5.28;;
70757;SDS011;59316;52.964;7.102;2022-12-31T22:33:47;11.55;;;5.57;;
70757;SDS011;59316;52.964;7.102;2022-12-31T22:38:52;14.85;;;5.50;;
70757;SDS011;59316;52.964;7.102;2022-12-31T22:43:57;14.02;;;6.00;;
70757;SDS011;59316;52.964;7.102;2022-12-31T22:49:04;13.98;;;6.47;;
70757;SDS011;59316;52.964;7.102;2022-12-31T22:54:08;10.03;;;5.67;;
70757;SDS011;59316;52.964;7.102;2022-12-31T22:59:11;15.27;;;5.90;;
70757;SDS011;59316;52.964;7.102;2022-12-31T23:04:14;14.98;;;5.60;;
70757;SDS011;59316;52.964;7.102;2022-12-31T23:09:17;15.43;;;8.35;;
70757;SDS011;59316;52.964;7.102;2022-12-31T23:14:19;27.67;;;11.13;;
70757;SDS011;59316;52.964;7.102;2022-12-31T23:19:22;24.83;;;10.82;;
70757;SDS011;59316;52.964;7.102;2022-12-31T23:24:25;18.95;;;9.60;;
70757;SDS011;59316;52.964;7.102;2022-12-31T23:29:28;25.27;;;11.57;;
70757;SDS011;59316;52.964;7.102;2022-12-31T23:34:31;31.83;;;14.30;;
70757;SDS011;59316;52.964;7.102;2022-12-31T23:39:34;28.50;;;16.77;;
70757;SDS011;59316;52.964;7.102;2022-12-31T23:44:36;28.10;;;12.30;;
70757;SDS011;59316;52.964;7.102;2022-12-31T23:49:39;26.20;;;11.10;;
70757;SDS011;59316;52.964;7.102;2022-12-31T23:54:41;22.33;;;12.10;;
70757;SDS011;59316;52.964;7.102;2022-12-31T23:59:44;33.70;;;17.77;;
